createdAt,value
2024-03-06T00:00:14.520Z,11.57
2024-03-06T00:02:41.796Z,9.90
2024-03-06T00:05:09.502Z,9.45
2024-03-06T00:07:37.247Z,11.75
2024-03-06T00:10:06.234Z,10.10
2024-03-06T00:12:33.114Z,13.38
2024-03-06T00:14:59.807Z,12.13
2024-03-06T00:17:26.601Z,12.15
2024-03-06T00:19:53.668Z,12.27
2024-03-06T00:24:52.302Z,10.60
2024-03-06T00:27:19.234Z,14.00
2024-03-06T00:32:13.412Z,12.25
2024-03-06T00:34:40.450Z,11.95
2024-03-06T00:39:33.545Z,10.63
2024-03-06T00:42:00.219Z,11.15
2024-03-06T00:44:26.867Z,12.07
2024-03-06T00:46:53.559Z,14.68
2024-03-06T00:49:20.428Z,11.90
2024-03-06T00:51:49.482Z,12.63
2024-03-06T00:54:17.316Z,9.93
2024-03-06T00:56:44.869Z,11.05
2024-03-06T01:01:38.456Z,10.63
2024-03-06T01:04:05.934Z,9.30
2024-03-06T01:08:59.540Z,12.13
2024-03-06T01:11:30.073Z,15.48
2024-03-06T01:13:56.783Z,14.05
2024-03-06T01:16:23.804Z,12.90
2024-03-06T01:18:51.829Z,10.27
2024-03-06T01:21:18.298Z,10.00
2024-03-06T01:23:46.296Z,9.52
2024-03-06T01:26:13.350Z,10.07
2024-03-06T01:28:40.969Z,9.27
2024-03-06T01:31:08.650Z,13.07
2024-03-06T01:33:35.687Z,14.15
2024-03-06T01:36:02.570Z,14.50
2024-03-06T01:38:29.037Z,12.90
2024-03-06T01:40:56.058Z,11.52
2024-03-06T01:43:24.834Z,11.10
2024-03-06T01:45:53.909Z,11.23
2024-03-06T01:48:28.139Z,11.48
2024-03-06T01:50:57.111Z,10.55
2024-03-06T01:53:25.756Z,11.93
2024-03-06T01:55:52.710Z,10.75
2024-03-06T02:00:47.921Z,9.32
2024-03-06T02:03:14.916Z,9.38
2024-03-06T02:05:41.993Z,8.68
2024-03-06T02:08:08.974Z,9.55
2024-03-06T02:10:35.841Z,10.35
2024-03-06T02:13:03.208Z,9.35
2024-03-06T02:15:30.102Z,8.32
2024-03-06T02:17:56.871Z,9.68
2024-03-06T02:20:25.688Z,8.55
2024-03-06T02:22:53.293Z,9.55
2024-03-06T02:25:20.648Z,7.82
2024-03-06T02:27:49.198Z,8.73
2024-03-06T02:30:21.616Z,8.48
2024-03-06T02:32:48.402Z,9.15
2024-03-06T02:35:15.519Z,8.45
2024-03-06T02:37:45.351Z,6.72
2024-03-06T02:40:12.967Z,11.88
2024-03-06T02:42:40.529Z,9.80
2024-03-06T02:45:08.626Z,8.40
2024-03-06T02:47:35.846Z,9.38
2024-03-06T02:52:29.889Z,8.25
2024-03-06T02:54:57.422Z,7.32
2024-03-06T02:57:29.695Z,8.23
2024-03-06T02:59:57.921Z,9.07
2024-03-06T03:02:24.948Z,7.30
2024-03-06T03:04:56.071Z,5.53
2024-03-06T03:07:22.826Z,6.20
2024-03-06T03:09:50.418Z,6.47
2024-03-06T03:12:17.467Z,7.80
2024-03-06T03:14:44.259Z,8.38
2024-03-06T03:19:40.960Z,8.45
2024-03-06T03:22:10.344Z,6.18
2024-03-06T03:24:38.042Z,5.72
2024-03-06T03:27:04.831Z,6.47
2024-03-06T03:29:31.460Z,23.92
2024-03-06T03:31:58.013Z,14.25
2024-03-06T03:34:24.831Z,10.60
2024-03-06T03:36:51.547Z,15.75
2024-03-06T03:39:18.175Z,16.48
2024-03-06T03:41:46.864Z,23.35
2024-03-06T03:44:19.898Z,9.23
2024-03-06T03:46:47.052Z,8.27
2024-03-06T03:49:13.931Z,8.27
2024-03-06T03:51:40.484Z,8.40
2024-03-06T03:54:07.364Z,6.88
2024-03-06T03:56:34.485Z,7.25
2024-03-06T03:59:01.132Z,8.30
2024-03-06T04:01:28.797Z,8.57
2024-03-06T04:06:22.349Z,19.60
2024-03-06T04:08:49.808Z,11.50
2024-03-06T04:11:16.612Z,14.77
2024-03-06T04:13:43.291Z,8.85
2024-03-06T04:16:10.986Z,24.25
2024-03-06T04:18:38.054Z,8.93
2024-03-06T04:23:33.775Z,7.28
2024-03-06T04:26:01.293Z,9.35
2024-03-06T04:28:28.796Z,8.18
2024-03-06T04:30:55.943Z,6.20
2024-03-06T04:33:23.131Z,6.43
2024-03-06T04:35:50.860Z,6.18
2024-03-06T04:38:17.584Z,5.53
2024-03-06T04:40:44.225Z,9.77
2024-03-06T04:43:11.536Z,26.02
2024-03-06T04:45:38.126Z,8.20
2024-03-06T04:48:05.611Z,8.05
2024-03-06T04:50:33.794Z,5.45
2024-03-06T04:53:00.584Z,5.40
2024-03-06T04:55:28.746Z,6.47
2024-03-06T04:57:55.302Z,5.63
2024-03-06T05:00:22.423Z,5.90
2024-03-06T06:00:31.557Z,7.32
2024-03-06T06:02:58.706Z,6.93
2024-03-06T06:05:25.422Z,6.90
2024-03-06T06:07:52.435Z,8.32
2024-03-06T06:10:21.775Z,6.10
2024-03-06T06:12:50.614Z,7.45
2024-03-06T06:15:18.118Z,7.03
2024-03-06T06:17:47.114Z,8.10
2024-03-06T06:20:18.171Z,15.25
2024-03-06T06:22:45.782Z,10.90
2024-03-06T06:25:13.935Z,8.27
2024-03-06T06:27:40.889Z,10.73
2024-03-06T06:30:12.919Z,7.10
2024-03-06T06:32:41.472Z,7.43
2024-03-06T06:35:10.399Z,10.48
2024-03-06T06:37:37.275Z,7.90
2024-03-06T06:40:07.764Z,8.10
2024-03-06T06:42:36.496Z,8.13
2024-03-06T06:45:03.823Z,10.88
2024-03-06T06:47:31.512Z,7.13
2024-03-06T06:49:58.996Z,8.27
2024-03-06T06:52:28.746Z,9.85
2024-03-06T06:54:56.610Z,9.20
2024-03-06T06:57:23.656Z,9.18
2024-03-06T06:59:51.320Z,8.32
2024-03-06T07:02:18.308Z,37.33
2024-03-06T07:04:45.236Z,16.20
2024-03-06T07:07:11.955Z,13.35
2024-03-06T07:09:38.946Z,19.15
2024-03-06T07:12:08.784Z,12.65
2024-03-06T07:14:35.598Z,13.38
2024-03-06T07:19:29.302Z,11.90
2024-03-06T07:21:56.262Z,11.00
2024-03-06T07:24:23.459Z,21.13
2024-03-06T07:26:50.076Z,9.18
2024-03-06T07:29:16.870Z,11.27
2024-03-06T07:34:12.041Z,10.65
2024-03-06T07:36:39.100Z,10.85
2024-03-06T07:39:05.870Z,13.45
2024-03-06T07:41:34.010Z,15.38
2024-03-06T07:44:01.132Z,12.02
2024-03-06T07:46:28.473Z,11.70
2024-03-06T07:48:55.988Z,11.10
2024-03-06T07:51:24.152Z,12.15
2024-03-06T07:53:51.830Z,8.90
2024-03-06T07:56:18.692Z,11.90
2024-03-06T07:58:45.672Z,12.05
2024-03-06T08:01:12.544Z,12.73
2024-03-06T08:03:44.010Z,11.45
2024-03-06T08:06:11.514Z,12.15
2024-03-06T08:08:41.290Z,11.32
2024-03-06T08:11:08.072Z,12.23
2024-03-06T08:13:35.389Z,15.32
2024-03-06T08:16:02.208Z,10.57
2024-03-06T08:18:29.422Z,11.65
2024-03-06T08:21:09.217Z,11.38
2024-03-06T08:23:36.188Z,11.60
2024-03-06T08:26:02.872Z,12.73
2024-03-06T08:28:30.029Z,14.57
2024-03-06T08:30:56.743Z,12.70
2024-03-06T08:33:24.316Z,9.48
2024-03-06T08:35:51.904Z,9.77
2024-03-06T08:38:18.788Z,9.98
2024-03-06T08:40:46.806Z,13.75
2024-03-06T08:43:16.711Z,12.93
2024-03-06T08:45:44.062Z,10.23
2024-03-06T08:48:11.339Z,13.20
2024-03-06T08:50:39.111Z,11.05
2024-03-06T08:53:05.990Z,11.02
2024-03-06T08:55:32.663Z,13.90
2024-03-06T08:57:59.702Z,11.43
2024-03-06T09:00:27.783Z,14.07
2024-03-06T09:02:54.606Z,18.77
2024-03-06T09:07:49.685Z,15.40
2024-03-06T09:10:19.900Z,15.77
2024-03-06T09:12:46.937Z,12.93
2024-03-06T09:15:15.725Z,12.82
2024-03-06T09:17:43.554Z,13.50
2024-03-06T09:20:14.627Z,13.73
2024-03-06T09:22:43.369Z,13.48
2024-03-06T09:25:14.773Z,11.88
2024-03-06T09:27:41.573Z,10.80
2024-03-06T09:30:10.116Z,11.48
2024-03-06T09:32:38.781Z,10.88
2024-03-06T09:35:07.763Z,11.13
2024-03-06T09:37:35.288Z,11.68
2024-03-06T09:42:29.556Z,11.32
2024-03-06T09:47:27.860Z,11.20
2024-03-06T09:49:55.187Z,11.90
2024-03-06T09:52:26.093Z,10.82
2024-03-06T09:54:56.717Z,12.68
2024-03-06T09:57:24.601Z,8.40
2024-03-06T10:02:31.693Z,8.65
2024-03-06T10:04:58.523Z,8.52
2024-03-06T10:07:25.248Z,8.48
2024-03-06T10:12:21.889Z,7.28
2024-03-06T10:14:52.978Z,7.60
2024-03-06T10:17:24.033Z,6.78
2024-03-06T10:19:53.590Z,6.75
2024-03-06T10:22:21.690Z,5.45
2024-03-06T10:24:48.841Z,5.80
2024-03-06T10:27:18.903Z,5.05
2024-03-06T10:29:45.805Z,3.70
2024-03-06T10:34:46.025Z,5.18
2024-03-06T10:37:12.784Z,6.55
2024-03-06T10:39:45.213Z,5.65
2024-03-06T10:42:14.372Z,5.18
2024-03-06T10:44:52.497Z,5.05
2024-03-06T10:47:20.035Z,4.68
2024-03-06T10:49:47.672Z,5.70
2024-03-06T10:52:17.739Z,6.95
2024-03-06T10:54:47.278Z,5.05
2024-03-06T10:57:15.305Z,5.57
2024-03-06T10:59:44.140Z,4.93
2024-03-06T11:02:11.404Z,6.40
2024-03-06T11:04:41.608Z,4.50
2024-03-06T11:07:11.831Z,4.10
2024-03-06T11:09:40.787Z,3.70
2024-03-06T11:12:08.267Z,5.22
2024-03-06T11:14:38.515Z,3.05
2024-03-06T11:17:07.578Z,3.65
2024-03-06T11:20:07.676Z,2.97
2024-03-06T11:22:56.689Z,2.42
2024-03-06T11:25:48.199Z,2.60
2024-03-06T11:28:26.311Z,1.60
2024-03-06T11:31:13.042Z,1.92
2024-03-06T11:33:44.959Z,3.05
2024-03-06T11:36:31.016Z,1.90
2024-03-06T11:39:07.477Z,2.45
2024-03-06T11:41:48.699Z,1.48
2024-03-06T11:44:22.316Z,2.45
2024-03-06T11:46:50.395Z,1.98
2024-03-06T11:49:23.079Z,2.15
2024-03-06T11:51:50.145Z,3.08
2024-03-06T11:54:19.031Z,2.33
2024-03-06T11:56:48.416Z,1.63
2024-03-06T11:59:16.062Z,1.88
2024-03-06T12:01:43.504Z,1.73
2024-03-06T12:04:10.526Z,2.33
2024-03-06T12:06:38.515Z,2.40
2024-03-06T12:09:05.159Z,3.90
2024-03-06T12:13:59.633Z,3.53
2024-03-06T12:16:26.710Z,3.10
2024-03-06T12:19:00.471Z,4.75
2024-03-06T12:21:33.488Z,4.63
2024-03-06T12:24:07.652Z,6.68
2024-03-06T12:26:34.465Z,5.57
2024-03-06T12:29:06.894Z,4.63
2024-03-06T12:31:36.973Z,8.98
2024-03-06T12:34:05.419Z,6.32
2024-03-06T12:36:34.233Z,4.70
2024-03-06T12:39:02.149Z,7.10
2024-03-06T12:41:30.876Z,6.10
2024-03-06T12:43:58.073Z,5.70
2024-03-06T12:46:25.170Z,7.50
2024-03-06T12:48:52.202Z,6.78
2024-03-06T12:51:18.819Z,6.82
2024-03-06T12:53:46.370Z,7.03
2024-03-06T12:56:13.296Z,5.53
2024-03-06T13:01:06.795Z,5.90
2024-03-06T13:03:33.666Z,6.15
2024-03-06T13:06:00.576Z,6.45
2024-03-06T13:08:27.904Z,5.70
2024-03-06T13:10:54.630Z,5.75
2024-03-06T13:13:21.783Z,6.28
2024-03-06T13:15:49.522Z,4.80
2024-03-06T13:18:17.693Z,4.95
2024-03-06T13:20:45.383Z,4.20
2024-03-06T13:23:13.001Z,4.78
2024-03-06T13:25:40.383Z,5.78
2024-03-06T13:28:07.286Z,5.25
2024-03-06T13:30:34.292Z,5.30
2024-03-06T13:33:01.221Z,4.75
2024-03-06T13:35:28.132Z,4.70
2024-03-06T13:37:58.262Z,4.13
2024-03-06T13:40:27.053Z,4.95
2024-03-06T13:42:53.712Z,4.78
2024-03-06T13:47:47.234Z,4.78
2024-03-06T13:50:15.707Z,4.88
2024-03-06T13:52:43.317Z,5.88
2024-03-06T13:55:10.801Z,5.68
2024-03-06T13:57:39.586Z,5.65
2024-03-06T14:00:13.418Z,5.32
2024-03-06T14:02:41.068Z,4.95
2024-03-06T14:05:08.285Z,5.57
2024-03-06T14:07:35.543Z,4.43
2024-03-06T14:10:05.112Z,4.80
2024-03-06T14:12:33.600Z,4.45
2024-03-06T14:15:00.591Z,4.97
2024-03-06T14:19:53.778Z,4.25
2024-03-06T14:22:20.441Z,5.30
2024-03-06T14:24:47.316Z,4.70
2024-03-06T14:27:17.253Z,4.18
2024-03-06T14:29:45.921Z,4.55
2024-03-06T14:32:12.711Z,3.45
2024-03-06T14:34:40.339Z,3.95
2024-03-06T14:37:07.417Z,3.85
2024-03-06T14:39:34.330Z,4.22
2024-03-06T14:42:01.018Z,5.60
2024-03-06T14:44:27.639Z,5.13
2024-03-06T14:46:54.484Z,4.53
2024-03-06T14:49:21.210Z,5.22
2024-03-06T14:51:47.895Z,4.38
2024-03-06T14:54:16.501Z,5.88
2024-03-06T14:56:43.182Z,4.25
2024-03-06T15:01:38.587Z,5.90
2024-03-06T15:04:05.468Z,3.90
2024-03-06T15:09:00.516Z,5.78
2024-03-06T15:11:30.653Z,5.40
2024-03-06T15:13:57.961Z,4.70
2024-03-06T15:16:25.059Z,5.97
2024-03-06T15:18:56.127Z,3.90
2024-03-06T15:21:25.086Z,3.95
2024-03-06T15:23:52.460Z,4.53
2024-03-06T15:26:19.788Z,5.13
2024-03-06T15:28:46.378Z,5.15
2024-03-06T15:31:12.958Z,4.43
2024-03-06T15:33:39.550Z,5.35
2024-03-06T15:36:06.976Z,3.40
2024-03-06T15:38:33.600Z,3.85
2024-03-06T15:41:00.271Z,3.78
2024-03-06T15:43:27.353Z,3.67
2024-03-06T15:45:56.163Z,3.80
2024-03-06T15:48:25.733Z,5.20
2024-03-06T15:50:53.439Z,3.97
2024-03-06T15:53:20.243Z,3.30
2024-03-06T15:55:46.766Z,3.53
2024-03-06T15:58:13.404Z,3.53
2024-03-06T16:00:40.017Z,2.80
2024-03-06T16:03:06.716Z,3.75
2024-03-06T16:08:05.147Z,3.42
2024-03-06T16:10:33.008Z,1.80
2024-03-06T16:12:59.518Z,2.45
2024-03-06T16:15:26.538Z,3.65
2024-03-06T16:17:53.564Z,3.50
2024-03-06T16:20:21.324Z,2.55
2024-03-06T16:22:48.106Z,2.83
2024-03-06T16:25:15.204Z,3.30
2024-03-06T16:27:42.403Z,3.00
2024-03-06T16:30:11.180Z,3.60
2024-03-06T16:32:37.862Z,2.70
2024-03-06T16:37:32.495Z,3.33
2024-03-06T16:39:59.090Z,4.80
2024-03-06T16:44:52.775Z,3.13
2024-03-06T16:49:46.188Z,3.58
2024-03-06T16:54:41.997Z,3.58
2024-03-06T16:57:11.714Z,5.57
2024-03-06T16:59:39.054Z,5.05
2024-03-06T17:02:06.414Z,5.22
2024-03-06T17:04:33.349Z,7.60
2024-03-06T17:07:02.265Z,5.13
2024-03-06T17:09:29.037Z,9.25
2024-03-06T17:14:22.317Z,6.15
2024-03-06T17:16:48.892Z,5.32
2024-03-06T17:19:15.791Z,5.75
2024-03-06T17:21:42.700Z,4.95
2024-03-06T17:24:09.410Z,6.50
2024-03-06T17:26:39.073Z,6.10
2024-03-06T17:29:08.316Z,5.05
2024-03-06T17:31:38.390Z,7.10
2024-03-06T17:34:06.969Z,5.95
2024-03-06T17:36:37.225Z,4.88
2024-03-06T17:39:04.630Z,5.32
2024-03-06T17:41:31.985Z,5.97
2024-03-06T17:43:59.025Z,5.20
2024-03-06T17:46:27.058Z,4.57
2024-03-06T17:48:53.583Z,4.90
2024-03-06T17:51:22.746Z,4.50
2024-03-06T17:53:49.338Z,4.95
2024-03-06T17:56:16.027Z,4.88
2024-03-06T17:58:42.848Z,5.07
2024-03-06T18:01:09.496Z,4.10
2024-03-06T18:03:36.490Z,4.63
2024-03-06T18:06:03.060Z,4.00
2024-03-06T18:08:30.378Z,6.05
2024-03-06T18:10:57.141Z,5.50
2024-03-06T18:13:23.665Z,5.55
2024-03-06T18:15:53.103Z,5.13
2024-03-06T18:18:20.475Z,4.68
2024-03-06T18:20:47.996Z,4.97
2024-03-06T18:23:14.824Z,3.95
2024-03-06T18:25:41.436Z,5.07
2024-03-06T18:30:34.900Z,4.90
2024-03-06T18:33:02.832Z,5.00
2024-03-06T18:35:29.659Z,4.22
2024-03-06T18:40:27.192Z,5.25
2024-03-06T18:42:54.736Z,5.47
2024-03-06T18:45:21.545Z,8.82
2024-03-06T18:47:48.438Z,4.80
2024-03-06T18:50:16.596Z,5.30
2024-03-06T18:52:43.641Z,4.97
2024-03-06T18:55:11.499Z,4.57
2024-03-06T18:57:39.452Z,5.72
2024-03-06T19:00:07.228Z,7.20
2024-03-06T19:02:34.299Z,7.43
2024-03-06T19:05:01.289Z,6.50
2024-03-06T19:07:29.386Z,6.28
2024-03-06T19:09:56.847Z,5.47
2024-03-06T19:12:24.112Z,7.03
2024-03-06T19:14:50.604Z,8.48
2024-03-06T19:17:18.393Z,7.07
2024-03-06T19:19:44.907Z,7.68
2024-03-06T19:22:11.647Z,7.00
2024-03-06T19:24:39.069Z,7.57
2024-03-06T19:27:05.997Z,8.23
2024-03-06T19:29:33.309Z,8.57
2024-03-06T19:32:04.736Z,6.80
2024-03-06T19:34:32.476Z,11.52
2024-03-06T19:37:00.687Z,12.32
2024-03-06T19:39:27.531Z,12.50
2024-03-06T19:41:54.436Z,11.73
2024-03-06T19:44:22.326Z,10.38
2024-03-06T19:46:49.492Z,13.60
2024-03-06T19:49:16.011Z,16.13
2024-03-06T19:51:43.959Z,14.18
2024-03-06T19:54:10.501Z,16.85
2024-03-06T19:56:37.145Z,14.85
2024-03-06T19:59:05.166Z,12.50
2024-03-06T20:01:32.088Z,15.38
2024-03-06T20:03:59.345Z,15.75
2024-03-06T20:06:27.783Z,16.15
2024-03-06T20:08:55.157Z,15.13
2024-03-06T20:11:22.117Z,14.95
2024-03-06T20:13:48.962Z,14.98
2024-03-06T20:16:15.549Z,15.32
2024-03-06T20:21:09.755Z,13.77
2024-03-06T20:23:36.398Z,14.30
2024-03-06T20:26:03.078Z,12.45
2024-03-06T20:28:29.770Z,13.20
2024-03-06T20:30:57.159Z,12.18
2024-03-06T20:33:24.554Z,14.52
2024-03-06T20:38:19.340Z,13.52
2024-03-06T20:40:49.174Z,11.63
2024-03-06T20:43:16.056Z,13.00
2024-03-06T20:45:44.809Z,11.95
2024-03-06T20:48:11.522Z,13.93
2024-03-06T20:50:39.626Z,14.85
2024-03-06T20:53:06.260Z,14.10
2024-03-06T20:55:33.231Z,15.30
2024-03-06T20:57:59.773Z,15.70
2024-03-06T21:00:27.091Z,16.45
2024-03-06T21:05:21.162Z,11.65
2024-03-06T21:07:49.242Z,10.68
2024-03-06T21:10:16.566Z,11.10
2024-03-06T21:12:48.358Z,11.02
2024-03-06T21:15:16.324Z,13.68
2024-03-06T21:17:43.768Z,14.73
2024-03-06T21:20:13.958Z,10.98
2024-03-06T21:22:45.131Z,11.02
2024-03-06T21:25:14.102Z,12.27
2024-03-06T21:27:41.289Z,11.80
2024-03-06T21:30:09.273Z,10.50
2024-03-06T21:32:39.659Z,9.95
2024-03-06T21:35:06.707Z,13.32
2024-03-06T21:37:34.113Z,12.88
2024-03-06T21:40:03.963Z,9.70
2024-03-06T21:42:31.802Z,10.40
2024-03-06T21:44:58.766Z,9.18
2024-03-06T21:47:25.768Z,9.93
2024-03-06T21:49:52.509Z,9.48
2024-03-06T21:54:45.978Z,8.73
2024-03-06T21:57:12.936Z,10.18
2024-03-06T21:59:42.739Z,9.05
2024-03-06T22:02:12.012Z,8.88
2024-03-06T22:04:40.239Z,8.98
2024-03-06T22:07:06.821Z,10.48
2024-03-06T22:09:34.436Z,10.25
2024-03-06T22:14:31.105Z,11.18
2024-03-06T22:16:58.983Z,9.95
2024-03-06T22:19:25.955Z,10.10
2024-03-06T22:21:52.646Z,11.43
2024-03-06T22:24:22.454Z,10.57
2024-03-06T22:26:49.569Z,11.57
2024-03-06T22:29:17.285Z,12.18
2024-03-06T22:31:45.230Z,12.10
2024-03-06T22:34:11.812Z,11.77
2024-03-06T22:36:39.307Z,10.90
2024-03-06T22:39:06.307Z,12.10
2024-03-06T22:41:33.004Z,9.85
2024-03-06T22:43:59.713Z,12.30
2024-03-06T22:46:26.241Z,13.40
2024-03-06T22:48:53.570Z,13.00
2024-03-06T22:51:20.241Z,12.35
2024-03-06T22:53:48.831Z,11.63
2024-03-06T22:56:15.973Z,13.10
2024-03-06T22:58:42.923Z,12.63
2024-03-06T23:01:09.579Z,13.73
2024-03-06T23:06:03.428Z,11.95
2024-03-06T23:08:30.517Z,11.52
2024-03-06T23:10:59.297Z,13.65
2024-03-06T23:13:26.514Z,12.55
2024-03-06T23:15:53.626Z,12.23
2024-03-06T23:18:21.525Z,13.23
2024-03-06T23:20:50.187Z,11.38
2024-03-06T23:23:16.925Z,13.80
2024-03-06T23:25:43.474Z,11.35
2024-03-06T23:28:14.198Z,12.95
2024-03-06T23:30:41.891Z,11.38
2024-03-06T23:33:09.230Z,13.18
2024-03-06T23:35:36.060Z,12.00
2024-03-06T23:38:02.636Z,13.90
2024-03-06T23:40:30.698Z,13.52
2024-03-06T23:42:58.510Z,10.90
2024-03-06T23:45:26.954Z,11.07
2024-03-06T23:47:53.754Z,15.75
2024-03-06T23:50:21.855Z,11.32
2024-03-06T23:52:49.689Z,14.23
2024-03-06T23:55:17.213Z,13.43
2024-03-06T23:57:44.232Z,12.57
